createdAt,value
2023-02-12T00:02:05.595Z,33.90
2023-02-12T00:04:32.667Z,34.85
2023-02-12T00:06:59.725Z,35.08
2023-02-12T00:09:26.934Z,38.42
2023-02-12T00:11:53.919Z,34.28
2023-02-12T00:14:20.891Z,39.42
2023-02-12T00:16:48.037Z,37.83
2023-02-12T00:19:15.066Z,39.72
2023-02-12T00:21:42.117Z,38.55
2023-02-12T00:24:09.118Z,37.15
2023-02-12T00:26:36.796Z,38.13
2023-02-12T00:29:03.860Z,40.08
2023-02-12T00:31:32.582Z,39.08
2023-02-12T00:34:00.463Z,39.13
2023-02-12T00:36:30.520Z,40.25
2023-02-12T00:38:58.466Z,37.65
2023-02-12T00:41:26.786Z,39.60
2023-02-12T00:43:53.905Z,36.78
2023-02-12T00:46:21.322Z,37.67
2023-02-12T00:48:48.519Z,37.17
2023-02-12T00:51:15.937Z,36.15
2023-02-12T00:53:43.248Z,39.67
2023-02-12T00:56:10.282Z,39.17
2023-02-12T00:58:37.395Z,41.90
2023-02-12T01:01:04.709Z,37.45
2023-02-12T01:03:31.899Z,37.58
2023-02-12T01:05:59.099Z,35.65
2023-02-12T01:08:26.367Z,35.33
2023-02-12T01:11:02.791Z,35.53
2023-02-12T01:13:33.712Z,36.15
2023-02-12T01:16:16.576Z,35.70
2023-02-12T01:18:44.087Z,34.42
2023-02-12T01:21:20.539Z,33.97
2023-02-12T01:23:48.135Z,32.35
2023-02-12T01:26:17.304Z,33.67
2023-02-12T01:28:48.784Z,34.58
2023-02-12T01:31:18.866Z,34.85
2023-02-12T01:33:49.600Z,35.80
2023-02-12T01:36:16.744Z,34.45
2023-02-12T01:38:44.107Z,37.13
2023-02-12T01:41:32.239Z,37.03
2023-02-12T01:44:21.382Z,35.10
2023-02-12T01:46:51.097Z,35.33
2023-02-12T01:49:24.693Z,35.28
2023-02-12T01:52:02.863Z,35.00
2023-02-12T01:54:32.373Z,32.55
2023-02-12T01:57:00.825Z,34.20
2023-02-12T01:59:28.798Z,31.92
2023-02-12T02:01:56.394Z,32.45
2023-02-12T02:04:29.335Z,33.92
2023-02-12T02:07:04.954Z,35.67
2023-02-12T02:09:34.943Z,33.92
2023-02-12T02:12:20.553Z,35.22
2023-02-12T02:14:50.029Z,32.88
2023-02-12T02:17:20.149Z,33.97
2023-02-12T02:20:14.604Z,31.35
2023-02-12T02:22:47.568Z,33.63
2023-02-12T02:25:17.562Z,32.53
2023-02-12T02:28:27.566Z,35.63
2023-02-12T02:30:57.413Z,33.45
2023-02-12T02:33:58.607Z,35.28
2023-02-12T02:37:00.893Z,33.00
2023-02-12T02:39:39.974Z,32.13
2023-02-12T02:42:10.034Z,32.60
2023-02-12T02:44:48.953Z,31.20
2023-02-12T02:47:22.329Z,31.25
2023-02-12T02:49:59.520Z,32.33
2023-02-12T02:52:43.389Z,32.72
2023-02-12T02:55:13.204Z,32.75
2023-02-12T02:57:56.423Z,30.33
2023-02-12T03:00:37.740Z,30.48
2023-02-12T03:03:23.343Z,31.05
2023-02-12T03:05:55.408Z,34.30
2023-02-12T03:08:34.709Z,36.33
2023-02-12T03:11:23.089Z,35.92
2023-02-12T03:13:58.049Z,35.10
2023-02-12T03:16:32.966Z,36.38
2023-02-12T03:19:15.691Z,35.47
2023-02-12T03:21:54.764Z,35.45
2023-02-12T03:24:29.009Z,37.53
2023-02-12T03:29:41.663Z,36.20
2023-02-12T03:32:33.941Z,35.72
2023-02-12T03:35:14.491Z,37.83
2023-02-12T03:37:56.257Z,35.50
2023-02-12T03:40:40.006Z,36.10
2023-02-12T03:43:24.701Z,38.00
2023-02-12T03:46:02.528Z,36.72
2023-02-12T03:48:41.386Z,36.97
2023-02-12T03:51:19.221Z,37.45
2023-02-12T03:53:47.394Z,36.83
2023-02-12T03:56:44.393Z,39.42
2023-02-12T03:59:12.130Z,36.05
2023-02-12T04:01:39.414Z,35.25
2023-02-12T04:04:09.179Z,36.70
2023-02-12T04:06:36.538Z,37.47
2023-02-12T04:09:08.839Z,37.70
2023-02-12T04:11:47.898Z,36.28
2023-02-12T04:14:31.746Z,38.28
2023-02-12T04:17:09.392Z,37.38
2023-02-12T04:19:42.240Z,37.63
2023-02-12T04:22:20.521Z,37.35
2023-02-12T04:25:30.664Z,36.80
2023-02-12T04:28:19.530Z,36.90
2023-02-12T04:31:11.875Z,35.38
2023-02-12T04:34:10.092Z,36.17
2023-02-12T04:37:05.809Z,35.72
2023-02-12T04:39:37.179Z,33.78
2023-02-12T04:42:04.941Z,33.60
2023-02-12T04:44:34.656Z,36.17
2023-02-12T04:47:02.834Z,33.83
2023-02-12T04:49:29.966Z,33.88
2023-02-12T04:51:57.088Z,33.80
2023-02-12T04:54:24.879Z,35.40
2023-02-12T04:56:52.387Z,34.72
2023-02-12T04:59:19.446Z,35.85
2023-02-12T05:01:47.224Z,36.53
2023-02-12T05:04:16.420Z,37.22
2023-02-12T05:06:45.151Z,34.80
2023-02-12T05:09:17.273Z,31.23
2023-02-12T05:11:44.618Z,35.22
2023-02-12T05:14:11.764Z,35.10
2023-02-12T05:16:38.887Z,35.42
2023-02-12T05:19:05.949Z,35.47
2023-02-12T05:21:33.018Z,34.90
2023-02-12T05:24:02.702Z,33.72
2023-02-12T05:26:30.860Z,32.35
2023-02-12T05:28:57.996Z,35.92
2023-02-12T05:31:25.331Z,32.03
2023-02-12T05:33:52.538Z,33.30
2023-02-12T05:36:22.562Z,33.30
2023-02-12T05:38:50.483Z,32.15
2023-02-12T05:41:20.953Z,31.10
2023-02-12T05:43:49.826Z,36.28
2023-02-12T05:46:21.036Z,35.55
2023-02-12T05:48:48.696Z,35.45
2023-02-12T05:51:23.106Z,36.25
2023-02-12T05:53:57.230Z,36.70
2023-02-12T05:58:55.229Z,32.58
2023-02-12T06:01:28.517Z,33.38
2023-02-12T06:03:55.852Z,33.83
2023-02-12T06:06:24.941Z,32.25
2023-02-12T06:08:52.012Z,36.33
2023-02-12T06:11:20.620Z,35.10
2023-02-12T06:13:48.401Z,39.15
2023-02-12T06:16:21.346Z,47.78
2023-02-12T06:18:49.390Z,38.13
2023-02-12T06:21:17.721Z,46.40
2023-02-12T06:23:45.045Z,42.17
2023-02-12T06:26:12.264Z,56.05
2023-02-12T06:28:39.582Z,51.70
2023-02-12T06:31:19.609Z,39.13
2023-02-12T06:33:46.911Z,38.05
2023-02-12T06:36:13.941Z,38.08
2023-02-12T06:38:42.054Z,41.97
2023-02-12T06:41:09.313Z,51.95
2023-02-12T06:43:36.934Z,55.53
2023-02-12T06:46:05.441Z,55.78
2023-02-12T06:48:33.307Z,50.05
2023-02-12T06:51:08.763Z,50.92
2023-02-12T06:53:36.568Z,38.10
2023-02-12T06:56:06.211Z,38.92
2023-02-12T06:58:33.522Z,43.05
2023-02-12T07:01:18.078Z,50.65
2023-02-12T07:06:15.126Z,41.25
2023-02-12T07:08:42.276Z,41.20
2023-02-12T07:11:09.567Z,41.70
2023-02-12T07:13:36.704Z,48.25
2023-02-12T07:16:08.506Z,38.33
2023-02-12T07:18:36.488Z,46.40
2023-02-12T07:21:04.605Z,48.40
2023-02-12T07:23:32.412Z,42.58
2023-02-12T07:26:01.576Z,42.90
2023-02-12T07:28:28.768Z,41.47
2023-02-12T07:30:55.882Z,43.35
2023-02-12T07:33:23.960Z,43.58
2023-02-12T07:35:51.056Z,45.88
2023-02-12T07:38:19.271Z,44.10
2023-02-12T07:40:46.351Z,41.00
2023-02-12T07:43:13.429Z,42.47
2023-02-12T07:45:40.455Z,43.60
2023-02-12T07:48:07.556Z,47.90
2023-02-12T07:50:34.747Z,42.53
2023-02-12T07:53:01.912Z,42.75
2023-02-12T07:55:29.022Z,45.03
2023-02-12T07:57:56.060Z,44.50
2023-02-12T08:00:23.294Z,46.67
2023-02-12T08:02:54.372Z,48.78
2023-02-12T08:05:21.452Z,45.90
2023-02-12T08:07:48.555Z,47.03
2023-02-12T08:10:15.922Z,50.10
2023-02-12T08:12:43.012Z,49.63
2023-02-12T08:15:10.425Z,51.10
2023-02-12T08:17:38.190Z,46.75
2023-02-12T08:20:05.721Z,47.28
2023-02-12T08:22:32.758Z,47.50
2023-02-12T08:24:59.885Z,49.65
2023-02-12T08:27:28.189Z,43.85
2023-02-12T08:29:55.301Z,41.97
2023-02-12T08:32:22.561Z,44.00
2023-02-12T08:34:49.656Z,43.83
2023-02-12T08:37:16.651Z,44.22
2023-02-12T08:39:43.775Z,43.95
2023-02-12T08:42:10.898Z,42.55
2023-02-12T08:44:38.082Z,43.22
2023-02-12T08:47:06.955Z,45.33
2023-02-12T08:49:33.978Z,43.53
2023-02-12T08:52:02.688Z,42.58
2023-02-12T08:54:32.808Z,42.40
2023-02-12T08:57:01.874Z,41.88
2023-02-12T08:59:29.680Z,43.20
2023-02-12T09:01:56.825Z,42.88
2023-02-12T09:04:26.909Z,41.80
2023-02-12T09:06:55.061Z,41.78
2023-02-12T09:09:22.505Z,42.53
2023-02-12T09:11:49.807Z,42.03
2023-02-12T09:14:19.056Z,39.50
2023-02-12T09:16:46.490Z,42.28
2023-02-12T09:19:14.677Z,43.40
2023-02-12T09:21:42.279Z,39.78
2023-02-12T09:24:10.048Z,38.78
2023-02-12T09:26:37.223Z,37.53
2023-02-12T09:29:05.269Z,37.50
2023-02-12T09:31:33.525Z,39.05
2023-02-12T09:34:07.416Z,39.72
2023-02-12T09:36:36.242Z,36.95
2023-02-12T09:39:05.773Z,37.38
2023-02-12T09:42:11.287Z,36.67
2023-02-12T09:45:03.076Z,34.60
2023-02-12T09:47:51.504Z,33.03
2023-02-12T09:50:37.576Z,34.05
2023-02-12T09:53:06.125Z,35.97
2023-02-12T09:55:35.268Z,33.40
2023-02-12T09:58:10.274Z,35.17
2023-02-12T10:00:37.320Z,33.40
2023-02-12T10:03:11.849Z,31.35
2023-02-12T10:05:43.587Z,32.00
2023-02-12T10:08:29.513Z,34.75
2023-02-12T10:10:59.696Z,30.38
2023-02-12T10:13:41.594Z,30.67
2023-02-12T10:16:17.508Z,32.17
2023-02-12T10:18:50.577Z,32.33
2023-02-12T10:21:36.206Z,32.10
2023-02-12T10:24:07.372Z,34.60
2023-02-12T10:26:43.167Z,32.65
2023-02-12T10:29:35.367Z,31.25
2023-02-12T10:32:14.026Z,33.22
2023-02-12T10:34:42.836Z,28.75
2023-02-12T10:37:35.876Z,29.33
2023-02-12T10:40:14.167Z,31.92
2023-02-12T10:42:44.342Z,30.27
2023-02-12T10:45:16.960Z,29.00
2023-02-12T10:47:46.230Z,26.65
2023-02-12T10:50:50.261Z,29.38
2023-02-12T10:53:25.409Z,28.25
2023-02-12T10:56:14.474Z,24.75
2023-02-12T10:58:52.634Z,25.85
2023-02-12T11:01:31.100Z,23.90
2023-02-12T11:04:00.388Z,22.88
2023-02-12T11:06:32.336Z,23.55
2023-02-12T11:08:59.800Z,22.73
2023-02-12T11:11:31.336Z,22.42
2023-02-12T11:14:16.485Z,21.73
2023-02-12T11:16:57.353Z,21.98
2023-02-12T11:19:27.828Z,23.95
2023-02-12T11:22:14.706Z,23.23
2023-02-12T11:24:41.751Z,21.30
2023-02-12T11:27:28.850Z,21.92
2023-02-12T11:30:15.679Z,21.83
2023-02-12T11:32:44.429Z,20.48
2023-02-12T11:35:25.039Z,20.85
2023-02-12T11:37:56.092Z,20.65
2023-02-12T11:40:29.426Z,19.58
2023-02-12T11:43:01.083Z,20.97
2023-02-12T11:45:35.716Z,21.65
2023-02-12T11:48:03.248Z,20.88
2023-02-12T11:50:33.267Z,21.95
2023-02-12T11:53:09.695Z,20.13
2023-02-12T11:55:40.608Z,19.52
2023-02-12T11:58:21.396Z,18.80
2023-02-12T12:00:57.172Z,18.67
2023-02-12T12:03:44.464Z,17.42
2023-02-12T12:06:36.325Z,19.90
2023-02-12T12:09:25.308Z,19.10
2023-02-12T12:12:02.689Z,18.23
2023-02-12T12:15:02.888Z,19.48
2023-02-12T12:18:07.290Z,19.15
2023-02-12T12:20:56.281Z,19.02
2023-02-12T12:23:37.383Z,19.33
2023-02-12T12:26:18.824Z,19.27
2023-02-12T12:29:09.094Z,17.73
2023-02-12T12:31:44.225Z,18.92
2023-02-12T12:34:17.240Z,17.35
2023-02-12T12:37:15.230Z,19.17
2023-02-12T12:39:56.268Z,18.30
2023-02-12T12:43:03.987Z,18.55
2023-02-12T12:45:51.671Z,17.10
2023-02-12T12:48:44.710Z,18.08
2023-02-12T12:51:15.461Z,17.20
2023-02-12T12:54:07.651Z,17.88
2023-02-12T12:56:48.282Z,17.27
2023-02-12T12:59:34.695Z,17.75
2023-02-12T13:02:26.512Z,17.35
2023-02-12T13:05:02.155Z,17.05
2023-02-12T13:07:53.250Z,17.55
2023-02-12T13:10:24.827Z,17.10
2023-02-12T13:13:03.465Z,16.20
2023-02-12T13:15:52.577Z,16.65
2023-02-12T13:18:34.719Z,16.27
2023-02-12T13:21:23.644Z,15.52
2023-02-12T13:24:03.272Z,15.02
2023-02-12T13:26:33.109Z,15.85
2023-02-12T13:29:08.716Z,15.52
2023-02-12T13:31:54.623Z,15.10
2023-02-12T13:34:23.291Z,15.48
2023-02-12T13:36:50.861Z,15.68
2023-02-12T13:39:31.708Z,14.48
2023-02-12T13:42:17.979Z,12.43
2023-02-12T13:45:18.571Z,13.55
2023-02-12T13:48:04.076Z,13.80
2023-02-12T13:50:31.118Z,13.68
2023-02-12T13:53:12.695Z,14.77
2023-02-12T13:55:54.789Z,14.50
2023-02-12T13:58:40.345Z,15.48
2023-02-12T14:01:11.873Z,15.75
2023-02-12T14:03:39.697Z,16.23
2023-02-12T14:06:17.972Z,15.73
2023-02-12T14:08:57.087Z,14.35
2023-02-12T14:11:26.599Z,16.45
2023-02-12T14:14:06.014Z,15.07
2023-02-12T14:16:33.033Z,15.13
2023-02-12T14:19:37.422Z,15.57
2023-02-12T14:22:30.547Z,15.65
2023-02-12T14:24:59.031Z,14.15
2023-02-12T14:27:53.132Z,14.57
2023-02-12T14:30:46.962Z,14.15
2023-02-12T14:33:26.525Z,15.93
2023-02-12T14:36:13.963Z,14.20
2023-02-12T14:38:47.553Z,15.30
2023-02-12T14:41:41.794Z,15.40
2023-02-12T14:44:18.308Z,14.17
2023-02-12T14:46:53.631Z,14.98
2023-02-12T14:49:39.811Z,15.82
2023-02-12T14:52:14.486Z,15.25
2023-02-12T14:54:55.727Z,15.57
2023-02-12T14:57:30.838Z,14.23
2023-02-12T15:00:18.138Z,15.40
2023-02-12T15:02:55.599Z,14.18
2023-02-12T15:05:47.761Z,13.68
2023-02-12T15:08:29.396Z,14.30
2023-02-12T15:11:22.160Z,12.85
2023-02-12T15:14:09.161Z,11.20
2023-02-12T15:16:52.685Z,12.95
2023-02-12T15:19:39.249Z,12.32
2023-02-12T15:22:30.083Z,12.30
2023-02-12T15:25:32.165Z,12.57
2023-02-12T15:28:18.920Z,11.40
2023-02-12T15:30:46.646Z,11.38
2023-02-12T15:33:27.152Z,10.55
2023-02-12T15:35:54.806Z,10.20
2023-02-12T15:38:32.065Z,10.60
2023-02-12T15:41:01.773Z,10.77
2023-02-12T15:43:36.221Z,9.35
2023-02-12T15:46:07.892Z,9.20
2023-02-12T15:48:37.195Z,8.88
2023-02-12T15:51:28.572Z,7.90
2023-02-12T15:53:58.322Z,8.93
2023-02-12T15:56:27.383Z,8.93
2023-02-12T15:58:57.835Z,7.28
2023-02-12T16:01:31.387Z,7.45
2023-02-12T16:04:01.594Z,7.55
2023-02-12T16:06:32.793Z,7.50
2023-02-12T16:09:06.860Z,7.45
2023-02-12T16:11:35.219Z,7.45
2023-02-12T16:14:07.751Z,8.25
2023-02-12T16:16:50.859Z,8.50
2023-02-12T16:19:37.363Z,7.72
2023-02-12T16:22:16.847Z,8.57
2023-02-12T16:24:51.248Z,8.73
2023-02-12T16:27:25.280Z,8.52
2023-02-12T16:29:55.543Z,7.65
2023-02-12T16:32:43.600Z,8.45
2023-02-12T16:35:10.667Z,8.35
2023-02-12T16:38:08.252Z,9.32
2023-02-12T16:40:37.646Z,8.40
2023-02-12T16:43:23.115Z,8.82
2023-02-12T16:45:50.524Z,8.25
2023-02-12T16:48:25.430Z,8.27
2023-02-12T16:50:56.126Z,8.30
2023-02-12T16:53:32.101Z,8.45
2023-02-12T16:56:00.581Z,7.65
2023-02-12T16:58:28.646Z,7.78
2023-02-12T17:00:57.544Z,7.20
2023-02-12T17:03:25.549Z,7.03
2023-02-12T17:05:52.880Z,7.68
2023-02-12T17:08:23.048Z,7.63
2023-02-12T17:10:50.616Z,6.68
2023-02-12T17:13:19.139Z,6.93
2023-02-12T17:15:48.226Z,7.55
2023-02-12T17:18:16.304Z,7.45
2023-02-12T17:20:47.897Z,6.60
2023-02-12T17:23:15.007Z,7.05
2023-02-12T17:25:42.422Z,6.78
2023-02-12T17:28:09.568Z,7.00
2023-02-12T17:30:37.537Z,7.38
2023-02-12T17:33:04.739Z,7.65
2023-02-12T17:35:31.848Z,8.38
2023-02-12T17:38:01.298Z,7.43
2023-02-12T17:40:28.422Z,8.25
2023-02-12T17:42:55.602Z,7.30
2023-02-12T17:45:22.632Z,7.85
2023-02-12T17:47:55.030Z,7.35
2023-02-12T17:50:22.073Z,7.72
2023-02-12T17:52:49.377Z,8.68
2023-02-12T17:55:17.917Z,7.75
2023-02-12T17:57:45.037Z,7.95
2023-02-12T18:00:13.219Z,7.55
2023-02-12T18:02:41.404Z,6.70
2023-02-12T18:05:08.927Z,7.03
2023-02-12T18:07:36.511Z,6.68
2023-02-12T18:10:05.447Z,7.53
2023-02-12T18:12:33.455Z,6.07
2023-02-12T18:15:02.508Z,9.07
2023-02-12T18:17:30.487Z,7.03
2023-02-12T18:19:57.815Z,7.15
2023-02-12T18:22:25.631Z,7.28
2023-02-12T18:24:53.126Z,6.63
2023-02-12T18:27:20.385Z,6.53
2023-02-12T18:29:47.582Z,7.10
2023-02-12T18:32:16.310Z,6.63
2023-02-12T18:34:44.623Z,6.72
2023-02-12T18:37:13.716Z,6.82
2023-02-12T18:39:41.823Z,7.43
2023-02-12T18:42:09.480Z,8.10
2023-02-12T18:44:37.111Z,7.30
2023-02-12T18:47:05.429Z,7.38
2023-02-12T18:49:32.489Z,8.40
2023-02-12T18:51:59.668Z,7.65
2023-02-12T18:54:35.480Z,8.02
2023-02-12T18:57:02.482Z,8.73
2023-02-12T18:59:29.693Z,8.75
2023-02-12T19:01:56.810Z,7.82
2023-02-12T19:04:26.709Z,8.52
2023-02-12T19:06:57.355Z,8.90
2023-02-12T19:09:26.312Z,8.68
2023-02-12T19:11:58.059Z,8.55
2023-02-12T19:14:28.005Z,8.73
2023-02-12T19:16:55.129Z,8.55
2023-02-12T19:19:22.660Z,8.63
2023-02-12T19:21:50.033Z,9.40
2023-02-12T19:24:20.451Z,9.70
2023-02-12T19:26:54.051Z,8.48
2023-02-12T19:29:21.224Z,8.75
2023-02-12T19:31:48.547Z,9.15
2023-02-12T19:34:19.816Z,8.95
2023-02-12T19:36:49.744Z,8.50
2023-02-12T19:39:19.776Z,9.30
2023-02-12T19:41:47.342Z,8.90
2023-02-12T19:44:23.251Z,8.23
2023-02-12T19:46:51.589Z,8.45
2023-02-12T19:49:23.065Z,8.13
2023-02-12T19:51:50.374Z,7.68
2023-02-12T19:54:22.374Z,8.70
2023-02-12T19:56:50.968Z,8.23
2023-02-12T19:59:20.578Z,7.32
2023-02-12T20:01:49.084Z,7.93
2023-02-12T20:04:21.745Z,8.40
2023-02-12T20:06:51.248Z,7.47
2023-02-12T20:09:19.200Z,8.32
2023-02-12T20:11:46.430Z,8.00
2023-02-12T20:14:14.835Z,7.38
2023-02-12T20:16:44.704Z,7.82
2023-02-12T20:19:18.321Z,8.23
2023-02-12T20:21:48.911Z,7.60
2023-02-12T20:24:16.045Z,8.25
2023-02-12T20:26:43.267Z,7.78
2023-02-12T20:29:10.306Z,8.00
2023-02-12T20:31:38.337Z,7.60
2023-02-12T20:34:08.956Z,7.38
2023-02-12T20:36:38.857Z,7.20
2023-02-12T20:39:08.213Z,7.22
2023-02-12T20:41:37.283Z,7.10
2023-02-12T20:44:06.861Z,7.10
2023-02-12T20:46:37.938Z,7.10
2023-02-12T20:49:07.879Z,7.35
2023-02-12T20:51:35.391Z,7.60
2023-02-12T20:54:03.491Z,7.35
2023-02-12T20:56:32.787Z,7.28
2023-02-12T20:59:01.089Z,7.55
2023-02-12T21:01:34.875Z,7.25
2023-02-12T21:04:10.747Z,7.20
2023-02-12T21:06:41.801Z,7.40
2023-02-12T21:09:10.113Z,7.95
2023-02-12T21:11:38.327Z,7.63
2023-02-12T21:14:21.321Z,7.15
2023-02-12T21:16:50.180Z,7.55
2023-02-12T21:19:18.175Z,7.22
2023-02-12T21:21:46.564Z,7.00
2023-02-12T21:24:16.360Z,7.25
2023-02-12T21:26:43.893Z,7.50
2023-02-12T21:29:10.996Z,7.65
2023-02-12T21:31:42.518Z,7.70
2023-02-12T21:34:14.600Z,7.60
2023-02-12T21:36:45.283Z,7.80
2023-02-12T21:39:16.083Z,8.73
2023-02-12T21:41:43.921Z,8.77
2023-02-12T21:44:15.163Z,8.27
2023-02-12T21:46:42.869Z,8.85
2023-02-12T21:49:15.004Z,8.90
2023-02-12T21:51:44.748Z,8.68
2023-02-12T21:54:15.607Z,9.52
2023-02-12T21:56:44.468Z,8.98
2023-02-12T21:59:13.652Z,10.13
2023-02-12T22:01:49.319Z,8.95
2023-02-12T22:04:17.327Z,8.98
2023-02-12T22:06:49.473Z,9.70
2023-02-12T22:09:20.747Z,9.18
2023-02-12T22:11:47.904Z,9.23
2023-02-12T22:14:17.189Z,9.65
2023-02-12T22:16:44.621Z,8.77
2023-02-12T22:19:11.778Z,9.05
2023-02-12T22:21:40.855Z,9.30
2023-02-12T22:24:12.020Z,9.23
2023-02-12T22:26:39.097Z,8.85
2023-02-12T22:29:11.414Z,9.23
2023-02-12T22:31:41.150Z,8.35
2023-02-12T22:34:11.707Z,9.20
2023-02-12T22:36:40.254Z,8.40
2023-02-12T22:39:07.742Z,8.93
2023-02-12T22:41:35.102Z,9.48
2023-02-12T22:44:05.423Z,9.25
2023-02-12T22:46:33.386Z,9.25
2023-02-12T22:49:00.971Z,9.07
2023-02-12T22:51:31.383Z,8.85
2023-02-12T22:53:59.118Z,9.05
2023-02-12T22:56:26.688Z,8.98
2023-02-12T22:58:58.476Z,8.73
2023-02-12T23:01:26.647Z,9.07
2023-02-12T23:03:54.451Z,9.55
2023-02-12T23:06:24.239Z,9.05
2023-02-12T23:08:53.246Z,8.55
2023-02-12T23:11:20.802Z,8.90
2023-02-12T23:13:48.157Z,8.98
2023-02-12T23:16:15.312Z,9.43
2023-02-12T23:18:42.569Z,9.27
2023-02-12T23:21:09.942Z,9.48
2023-02-12T23:23:37.204Z,9.65
2023-02-12T23:26:04.605Z,9.73
2023-02-12T23:28:31.880Z,9.85
2023-02-12T23:30:59.511Z,9.82
2023-02-12T23:33:27.523Z,9.60
2023-02-12T23:35:54.512Z,9.82
2023-02-12T23:38:21.534Z,10.00
2023-02-12T23:40:48.692Z,9.73
2023-02-12T23:43:16.148Z,9.35
2023-02-12T23:45:44.835Z,10.13
2023-02-12T23:48:12.144Z,9.57
2023-02-12T23:50:39.986Z,10.48
2023-02-12T23:53:07.311Z,9.90
2023-02-12T23:55:37.582Z,10.27
2023-02-12T23:58:05.867Z,10.43
